sensor_id;sensor_type;location;lat;lon;timestamp;pressure;altitude;pressure_sealevel;temperature;humidity
59190;BME280;50749;51.636;4.948;2023-04-09T00:02:10;102639.19;;;18.05;57.30
59190;BME280;50749;51.636;4.948;2023-04-09T00:04:36;102637.56;;;18.04;56.92
59190;BME280;50749;51.636;4.948;2023-04-09T00:07:02;102633.16;;;18.03;57.25
59190;BME280;50749;51.636;4.948;2023-04-09T00:09:27;102627.94;;;18.01;57.13
59190;BME280;50749;51.636;4.948;2023-04-09T00:11:53;102632.66;;;18.01;57.53
59190;BME280;50749;51.636;4.948;2023-04-09T00:14:19;102631.84;;;18.00;57.25
59190;BME280;50749;51.636;4.948;2023-04-09T00:16:45;102634.63;;;18.00;57.51
59190;BME280;50749;51.636;4.948;2023-04-09T00:19:11;102629.41;;;17.99;57.09
59190;BME280;50749;51.636;4.948;2023-04-09T00:21:37;102628.88;;;17.97;57.22
59190;BME280;50749;51.636;4.948;2023-04-09T00:24:03;102632.47;;;17.97;56.87
59190;BME280;50749;51.636;4.948;2023-04-09T00:26:30;102627.75;;;17.98;56.84
59190;BME280;50749;51.636;4.948;2023-04-09T00:28:56;102620.56;;;17.97;56.99
59190;BME280;50749;51.636;4.948;2023-04-09T00:31:22;102619.28;;;17.94;56.74
59190;BME280;50749;51.636;4.948;2023-04-09T00:33:47;102618.47;;;17.94;56.98
59190;BME280;50749;51.636;4.948;2023-04-09T00:36:13;102613.25;;;17.92;57.19
59190;BME280;50749;51.636;4.948;2023-04-09T00:38:39;102616.81;;;17.93;56.98
59190;BME280;50749;51.636;4.948;2023-04-09T00:41:07;102612.41;;;17.92;56.90
59190;BME280;50749;51.636;4.948;2023-04-09T00:43:34;102617.94;;;17.92;56.90
59190;BME280;50749;51.636;4.948;2023-04-09T00:46:01;102609.16;;;17.90;57.55
59190;BME280;50749;51.636;4.948;2023-04-09T00:48:27;102613.56;;;17.91;57.47
59190;BME280;50749;51.636;4.948;2023-04-09T00:50:53;102608.34;;;17.89;57.02
59190;BME280;50749;51.636;4.948;2023-04-09T00:53:19;102607.53;;;17.89;56.51
59190;BME280;50749;51.636;4.948;2023-04-09T00:55:45;102604.75;;;17.89;56.26
59190;BME280;50749;51.636;4.948;2023-04-09T00:58:11;102602.31;;;17.87;55.83
59190;BME280;50749;51.636;4.948;2023-04-09T01:00:38;102602.59;;;17.86;55.96
59190;BME280;50749;51.636;4.948;2023-04-09T01:03:04;102606.47;;;17.85;55.84
59190;BME280;50749;51.636;4.948;2023-04-09T01:17:04;102586.63;;;17.82;56.24
59190;BME280;50749;51.636;4.948;2023-04-09T01:19:52;102591.34;;;17.82;56.12
59190;BME280;50749;51.636;4.948;2023-04-09T01:25:29;102579.75;;;17.80;56.27
59190;BME280;50749;51.636;4.948;2023-04-09T01:28:24;102589.19;;;17.79;56.55
59190;BME280;50749;51.636;4.948;2023-04-09T01:30:54;102584.47;;;17.79;56.24
59190;BME280;50749;51.636;4.948;2023-04-09T01:33:23;102582.81;;;17.78;56.66
59190;BME280;50749;51.636;4.948;2023-04-09T01:35:50;102584.78;;;17.78;56.32
59190;BME280;50749;51.636;4.948;2023-04-09T01:38:19;102579.25;;;17.78;56.48
59190;BME280;50749;51.636;4.948;2023-04-09T01:40:46;102578.44;;;17.77;56.65
59190;BME280;50749;51.636;4.948;2023-04-09T01:43:13;102582.03;;;17.78;56.75
59190;BME280;50749;51.636;4.948;2023-04-09T01:45:40;102572.06;;;17.77;56.99
59190;BME280;50749;51.636;4.948;2023-04-09T01:48:08;102575.19;;;17.75;56.58
59190;BME280;50749;51.636;4.948;2023-04-09T01:50:34;102572.41;;;17.75;56.35
59190;BME280;50749;51.636;4.948;2023-04-09T01:53:01;102570.47;;;17.76;56.46
59190;BME280;50749;51.636;4.948;2023-04-09T01:55:26;102569.97;;;17.74;56.36
59190;BME280;50749;51.636;4.948;2023-04-09T01:57:52;102572.41;;;17.75;56.01
59190;BME280;50749;51.636;4.948;2023-04-09T02:00:18;102573.53;;;17.74;56.16
59190;BME280;50749;51.636;4.948;2023-04-09T02:05:23;102574.66;;;17.73;56.78
59190;BME280;50749;51.636;4.948;2023-04-09T02:07:55;102570.28;;;17.72;56.19
59190;BME280;50749;51.636;4.948;2023-04-09T02:10:26;102570.28;;;17.72;56.61
59190;BME280;50749;51.636;4.948;2023-04-09T02:12:56;102568.63;;;17.71;56.78
59190;BME280;50749;51.636;4.948;2023-04-09T02:15:23;102570.59;;;17.71;56.49
59190;BME280;50749;51.636;4.948;2023-04-09T02:17:49;102571.41;;;17.71;56.50
59190;BME280;50749;51.636;4.948;2023-04-09T02:20:16;102571.41;;;17.71;56.45
59190;BME280;50749;51.636;4.948;2023-04-09T02:22:46;102573.66;;;17.69;56.79
59190;BME280;50749;51.636;4.948;2023-04-09T02:25:12;102569.78;;;17.70;56.46
59190;BME280;50749;51.636;4.948;2023-04-09T02:27:38;102561.47;;;17.70;56.86
59190;BME280;50749;51.636;4.948;2023-04-09T02:30:05;102568.94;;;17.70;56.41
59190;BME280;50749;51.636;4.948;2023-04-09T02:32:31;102559.84;;;17.69;56.80
59190;BME280;50749;51.636;4.948;2023-04-09T02:34:56;102565.38;;;17.69;56.60
59190;BME280;50749;51.636;4.948;2023-04-09T02:37:22;102564.56;;;17.69;56.88
59190;BME280;50749;51.636;4.948;2023-04-09T02:39:48;102563.72;;;17.68;56.45
59190;BME280;50749;51.636;4.948;2023-04-09T02:42:14;102549.41;;;17.66;56.63
59190;BME280;50749;51.636;4.948;2023-04-09T02:44:40;102548.59;;;17.66;56.30
59190;BME280;50749;51.636;4.948;2023-04-09T02:47:06;102551.34;;;17.66;56.45
59190;BME280;50749;51.636;4.948;2023-04-09T02:49:31;102542.22;;;17.65;56.25
59190;BME280;50749;51.636;4.948;2023-04-09T02:51:57;102548.59;;;17.66;56.41
59190;BME280;50749;51.636;4.948;2023-04-09T02:54:23;102548.91;;;17.64;55.86
59190;BME280;50749;51.636;4.948;2023-04-09T02:56:49;102540.59;;;17.64;55.70
59190;BME280;50749;51.636;4.948;2023-04-09T02:59:15;102546.44;;;17.62;55.90
59190;BME280;50749;51.636;4.948;2023-04-09T03:01:41;102545.63;;;17.62;56.09
59190;BME280;50749;51.636;4.948;2023-04-09T03:04:06;102549.53;;;17.61;56.03
59190;BME280;50749;51.636;4.948;2023-04-09T03:06:32;102543.69;;;17.62;55.97
59190;BME280;50749;51.636;4.948;2023-04-09T03:09:01;102548.41;;;17.62;55.94
59190;BME280;50749;51.636;4.948;2023-04-09T03:11:26;102542.03;;;17.61;55.71
59190;BME280;50749;51.636;4.948;2023-04-09T03:13:52;102545.94;;;17.60;55.80
59190;BME280;50749;51.636;4.948;2023-04-09T03:16:18;102533.75;;;17.61;56.06
59190;BME280;50749;51.636;4.948;2023-04-09T03:18:44;102539.59;;;17.60;55.64
59190;BME280;50749;51.636;4.948;2023-04-09T03:21:10;102529.66;;;17.59;56.08
59190;BME280;50749;51.636;4.948;2023-04-09T03:23:36;102534.06;;;17.60;56.20
59190;BME280;50749;51.636;4.948;2023-04-09T03:26:03;102531.59;;;17.58;55.97
59190;BME280;50749;51.636;4.948;2023-04-09T03:28:30;102531.59;;;17.58;55.78
59190;BME280;50749;51.636;4.948;2023-04-09T03:30:56;102530.78;;;17.58;55.83
59190;BME280;50749;51.636;4.948;2023-04-09T03:33:22;102518.13;;;17.57;56.25
59190;BME280;50749;51.636;4.948;2023-04-09T03:35:48;102526.41;;;17.57;55.65
59190;BME280;50749;51.636;4.948;2023-04-09T03:38:14;102521.69;;;17.57;56.02
59190;BME280;50749;51.636;4.948;2023-04-09T03:40:40;102516.47;;;17.56;56.16
59190;BME280;50749;51.636;4.948;2023-04-09T03:43:07;102519.22;;;17.56;56.46
59190;BME280;50749;51.636;4.948;2023-04-09T03:45:33;102526.41;;;17.57;56.17
59190;BME280;50749;51.636;4.948;2023-04-09T03:47:58;102514.81;;;17.55;56.52
59190;BME280;50749;51.636;4.948;2023-04-09T03:50:24;102510.94;;;17.56;56.17
59190;BME280;50749;51.636;4.948;2023-04-09T03:52:50;102516.47;;;17.56;56.33
59190;BME280;50749;51.636;4.948;2023-04-09T03:55:16;102506.53;;;17.55;56.09
59190;BME280;50749;51.636;4.948;2023-04-09T03:57:41;102506.84;;;17.53;56.01
59190;BME280;50749;51.636;4.948;2023-04-09T04:00:08;102506.84;;;17.53;56.00
59190;BME280;50749;51.636;4.948;2023-04-09T04:02:34;102503.28;;;17.53;55.95
59190;BME280;50749;51.636;4.948;2023-04-09T04:05:00;102494.16;;;17.52;55.90
59190;BME280;50749;51.636;4.948;2023-04-09T04:07:25;102505.22;;;17.52;55.75
59190;BME280;50749;51.636;4.948;2023-04-09T04:09:51;102498.88;;;17.52;55.69
59190;BME280;50749;51.636;4.948;2023-04-09T04:12:17;102509.13;;;17.51;55.56
59190;BME280;50749;51.636;4.948;2023-04-09T04:14:43;102506.34;;;17.51;55.60
59190;BME280;50749;51.636;4.948;2023-04-09T04:17:09;102502.78;;;17.51;55.47
59190;BME280;50749;51.636;4.948;2023-04-09T04:19:36;102501.13;;;17.50;55.92
59190;BME280;50749;51.636;4.948;2023-04-09T04:22:01;102496.44;;;17.50;55.89
59190;BME280;50749;51.636;4.948;2023-04-09T04:24:28;102496.44;;;17.50;55.37
59190;BME280;50749;51.636;4.948;2023-04-09T04:26:53;102496.75;;;17.49;55.45
59190;BME280;50749;51.636;4.948;2023-04-09T04:29:20;102501.13;;;17.50;55.60
59190;BME280;50749;51.636;4.948;2023-04-09T04:31:46;102494.78;;;17.49;55.25
59190;BME280;50749;51.636;4.948;2023-04-09T04:34:12;102501.13;;;17.50;55.61
59190;BME280;50749;51.636;4.948;2023-04-09T04:36:38;102494.78;;;17.49;55.75
59190;BME280;50749;51.636;4.948;2023-04-09T04:39:04;102504.22;;;17.48;55.50
59190;BME280;50749;51.636;4.948;2023-04-09T04:41:29;102504.50;;;17.46;55.27
59190;BME280;50749;51.636;4.948;2023-04-09T04:43:55;102501.75;;;17.46;55.93
59190;BME280;50749;51.636;4.948;2023-04-09T04:46:21;102512.81;;;17.46;55.41
59190;BME280;50749;51.636;4.948;2023-04-09T04:48:47;102499.34;;;17.45;55.40
59190;BME280;50749;51.636;4.948;2023-04-09T04:51:13;102500.13;;;17.45;55.83
59190;BME280;50749;51.636;4.948;2023-04-09T04:53:39;102503.72;;;17.46;55.36
59190;BME280;50749;51.636;4.948;2023-04-09T04:56:05;102501.25;;;17.44;55.29
59190;BME280;50749;51.636;4.948;2023-04-09T04:58:31;102502.09;;;17.45;55.65
59190;BME280;50749;51.636;4.948;2023-04-09T05:00:56;102506.78;;;17.44;55.72
59190;BME280;50749;51.636;4.948;2023-04-09T05:03:22;102506.78;;;17.44;55.36
59190;BME280;50749;51.636;4.948;2023-04-09T05:05:48;102499.63;;;17.43;55.28
59190;BME280;50749;51.636;4.948;2023-04-09T05:08:14;102507.94;;;17.43;55.64
59190;BME280;50749;51.636;4.948;2023-04-09T05:10:40;102505.97;;;17.44;55.44
59190;BME280;50749;51.636;4.948;2023-04-09T05:13:07;102507.94;;;17.43;55.34
59190;BME280;50749;51.636;4.948;2023-04-09T05:15:36;102506.28;;;17.42;55.54
59190;BME280;50749;51.636;4.948;2023-04-09T05:18:02;102511.00;;;17.42;55.18
59190;BME280;50749;51.636;4.948;2023-04-09T05:20:28;102509.38;;;17.41;55.10
59190;BME280;50749;51.636;4.948;2023-04-09T05:22:54;102512.63;;;17.43;55.07
59190;BME280;50749;51.636;4.948;2023-04-09T05:25:20;102508.75;;;17.44;55.10
59190;BME280;50749;51.636;4.948;2023-04-09T05:27:46;102515.09;;;17.44;55.00
59190;BME280;50749;51.636;4.948;2023-04-09T05:30:11;102514.16;;;17.49;54.98
59190;BME280;50749;51.636;4.948;2023-04-09T05:32:38;102509.28;;;17.55;55.03
59190;BME280;50749;51.636;4.948;2023-04-09T05:35:04;102505.09;;;17.57;55.23
59190;BME280;50749;51.636;4.948;2023-04-09T05:37:30;102513.75;;;17.64;55.21
59190;BME280;50749;51.636;4.948;2023-04-09T05:39:55;102515.59;;;17.69;55.60
59190;BME280;50749;51.636;4.948;2023-04-09T05:42:21;102510.22;;;17.73;55.97
59190;BME280;50749;51.636;4.948;2023-04-09T05:44:47;102515.13;;;17.76;55.60
59190;BME280;50749;51.636;4.948;2023-04-09T05:47:13;102518.56;;;17.81;55.92
59190;BME280;50749;51.636;4.948;2023-04-09T05:49:39;102519.06;;;17.83;55.91
59190;BME280;50749;51.636;4.948;2023-04-09T05:52:05;102519.59;;;17.86;55.62
59190;BME280;50749;51.636;4.948;2023-04-09T05:54:31;102530.88;;;17.89;55.94
59190;BME280;50749;51.636;4.948;2023-04-09T05:56:57;102523.88;;;17.92;55.55
59190;BME280;50749;51.636;4.948;2023-04-09T05:59:22;102523.25;;;17.95;55.38
59190;BME280;50749;51.636;4.948;2023-04-09T06:01:48;102515.94;;;17.99;55.73
59190;BME280;50749;51.636;4.948;2023-04-09T06:04:14;102521.16;;;18.00;55.40
59190;BME280;50749;51.636;4.948;2023-04-09T06:06:40;102529.13;;;18.02;54.28
59190;BME280;50749;51.636;4.948;2023-04-09T06:09:06;102522.97;;;18.05;54.58
59190;BME280;50749;51.636;4.948;2023-04-09T06:11:32;102527.88;;;18.08;54.72
59190;BME280;50749;51.636;4.948;2023-04-09T06:13:58;102524.16;;;18.13;54.37
59190;BME280;50749;51.636;4.948;2023-04-09T06:16:24;102533.44;;;18.17;54.26
59190;BME280;50749;51.636;4.948;2023-04-09T06:18:50;102527.59;;;18.18;54.34
59190;BME280;50749;51.636;4.948;2023-04-09T06:21:19;102530.53;;;18.22;54.48
59190;BME280;50749;51.636;4.948;2023-04-09T06:23:45;102532.97;;;18.24;54.28
59190;BME280;50749;51.636;4.948;2023-04-09T06:26:11;102530.38;;;18.27;54.41
59190;BME280;50749;51.636;4.948;2023-04-09T06:28:36;102529.75;;;18.30;55.33
59190;BME280;50749;51.636;4.948;2023-04-09T06:31:02;102539.38;;;18.33;55.50
59190;BME280;50749;51.636;4.948;2023-04-09T06:33:28;102529.91;;;18.34;55.62
59190;BME280;50749;51.636;4.948;2023-04-09T06:35:54;102533.53;;;18.34;55.44
59190;BME280;50749;51.636;4.948;2023-04-09T06:38:19;102543.97;;;18.37;55.26
59190;BME280;50749;51.636;4.948;2023-04-09T06:40:45;102542.00;;;18.38;55.13
59190;BME280;50749;51.636;4.948;2023-04-09T06:43:11;102545.25;;;18.40;55.14
59190;BME280;50749;51.636;4.948;2023-04-09T06:45:37;102550.78;;;18.40;55.29
59190;BME280;50749;51.636;4.948;2023-04-09T06:48:03;102553.56;;;18.40;54.95
59190;BME280;50749;51.636;4.948;2023-04-09T06:50:29;102552.44;;;18.41;54.94
59190;BME280;50749;51.636;4.948;2023-04-09T06:52:56;102552.94;;;18.43;54.86
59190;BME280;50749;51.636;4.948;2023-04-09T06:55:22;102557.84;;;18.46;55.23
59190;BME280;50749;51.636;4.948;2023-04-09T06:57:48;102558.50;;;18.52;56.07
59190;BME280;50749;51.636;4.948;2023-04-09T07:00:14;102558.34;;;18.57;55.89
59190;BME280;50749;51.636;4.948;2023-04-09T07:02:41;102557.88;;;18.64;56.33
59190;BME280;50749;51.636;4.948;2023-04-09T07:05:07;102554.63;;;18.70;55.61
59190;BME280;50749;51.636;4.948;2023-04-09T07:07:33;102555.81;;;18.78;55.93
59190;BME280;50749;51.636;4.948;2023-04-09T07:09:59;102558.75;;;18.82;55.98
59190;BME280;50749;51.636;4.948;2023-04-09T07:12:30;102553.88;;;18.87;55.54
59190;BME280;50749;51.636;4.948;2023-04-09T07:15:00;102550.47;;;18.90;55.26
59190;BME280;50749;51.636;4.948;2023-04-09T07:17:26;102550.31;;;18.96;55.15
59190;BME280;50749;51.636;4.948;2023-04-09T07:19:53;102544.78;;;18.96;54.60
59190;BME280;50749;51.636;4.948;2023-04-09T07:22:23;102548.03;;;18.98;54.34
59190;BME280;50749;51.636;4.948;2023-04-09T07:24:49;102542.50;;;18.98;54.46
59190;BME280;50749;51.636;4.948;2023-04-09T07:27:25;102550.16;;;19.01;55.15
59190;BME280;50749;51.636;4.948;2023-04-09T07:29:56;102547.06;;;19.02;55.17
59190;BME280;50749;51.636;4.948;2023-04-09T07:32:23;102542.34;;;19.03;54.77
59190;BME280;50749;51.636;4.948;2023-04-09T07:34:53;102550.16;;;19.01;54.28
59190;BME280;50749;51.636;4.948;2023-04-09T07:37:18;102548.19;;;19.01;54.43
59190;BME280;50749;51.636;4.948;2023-04-09T07:39:46;102543.50;;;19.02;54.60
59190;BME280;50749;51.636;4.948;2023-04-09T07:42:12;102541.19;;;19.04;54.25
59190;BME280;50749;51.636;4.948;2023-04-09T07:44:38;102548.38;;;19.05;54.20
59190;BME280;50749;51.636;4.948;2023-04-09T07:47:06;102548.38;;;19.05;54.25
59190;BME280;50749;51.636;4.948;2023-04-09T07:49:34;102548.56;;;19.08;54.44
59190;BME280;50749;51.636;4.948;2023-04-09T07:52:00;102545.47;;;19.10;54.39
59190;BME280;50749;51.636;4.948;2023-04-09T07:54:26;102551.16;;;19.14;54.69
59190;BME280;50749;51.636;4.948;2023-04-09T07:56:53;102549.53;;;19.12;54.48
59190;BME280;50749;51.636;4.948;2023-04-09T07:59:19;102547.22;;;19.15;54.86
59190;BME280;50749;51.636;4.948;2023-04-09T08:01:45;102547.22;;;19.15;54.78
59190;BME280;50749;51.636;4.948;2023-04-09T08:04:11;102550.31;;;19.13;55.09
59190;BME280;50749;51.636;4.948;2023-04-09T08:06:37;102546.44;;;19.14;54.68
59190;BME280;50749;51.636;4.948;2023-04-09T08:09:03;102549.19;;;19.14;54.99
59190;BME280;50749;51.636;4.948;2023-04-09T08:11:29;102555.88;;;19.13;54.94
59190;BME280;50749;51.636;4.948;2023-04-09T08:13:55;102557.03;;;19.12;55.42
59190;BME280;50749;51.636;4.948;2023-04-09T08:16:22;102555.88;;;19.13;55.36
59190;BME280;50749;51.636;4.948;2023-04-09T08:18:49;102551.16;;;19.14;55.24
59190;BME280;50749;51.636;4.948;2023-04-09T08:21:15;102551.66;;;19.16;54.96
59190;BME280;50749;51.636;4.948;2023-04-09T08:23:41;102538.28;;;19.18;54.54
59190;BME280;50749;51.636;4.948;2023-04-09T08:26:07;102542.03;;;19.22;54.57
59190;BME280;50749;51.636;4.948;2023-04-09T08:28:33;102541.19;;;19.21;54.14
59190;BME280;50749;51.636;4.948;2023-04-09T08:30:58;102538.94;;;19.23;54.92
59190;BME280;50749;51.636;4.948;2023-04-09T08:33:24;102539.09;;;19.27;54.49
59190;BME280;50749;51.636;4.948;2023-04-09T08:35:51;102541.56;;;19.28;55.19
59190;BME280;50749;51.636;4.948;2023-04-09T08:38:17;102535.00;;;19.24;53.91
59190;BME280;50749;51.636;4.948;2023-04-09T08:40:43;102556.22;;;19.20;53.35
59190;BME280;50749;51.636;4.948;2023-04-09T08:43:14;102551.31;;;19.17;53.43
59190;BME280;50749;51.636;4.948;2023-04-09T08:45:41;102545.28;;;19.15;53.62
59190;BME280;50749;51.636;4.948;2023-04-09T08:48:12;102549.03;;;19.10;54.15
59190;BME280;50749;51.636;4.948;2023-04-09T08:50:38;102553.78;;;19.10;53.81
59190;BME280;50749;51.636;4.948;2023-04-09T08:53:05;102551.00;;;19.10;54.36
59190;BME280;50749;51.636;4.948;2023-04-09T08:55:32;102549.69;;;19.07;53.76
59190;BME280;50749;51.636;4.948;2023-04-09T08:58:05;102551.47;;;19.03;54.07
59190;BME280;50749;51.636;4.948;2023-04-09T09:00:31;102547.06;;;19.02;53.98
59190;BME280;50749;51.636;4.948;2023-04-09T09:03:09;102543.16;;;19.03;54.40
59190;BME280;50749;51.636;4.948;2023-04-09T09:05:41;102547.38;;;19.01;53.98
59190;BME280;50749;51.636;4.948;2023-04-09T09:08:09;102543.00;;;19.00;54.53
59190;BME280;50749;51.636;4.948;2023-04-09T09:10:42;102539.41;;;18.99;54.47
59190;BME280;50749;51.636;4.948;2023-04-09T09:13:22;102534.84;;;19.03;54.58
59190;BME280;50749;51.636;4.948;2023-04-09T09:15:52;102540.56;;;19.07;54.07
59190;BME280;50749;51.636;4.948;2023-04-09T09:18:40;102535.97;;;19.11;54.33
59190;BME280;50749;51.636;4.948;2023-04-09T09:21:17;102540.06;;;19.05;54.79
59190;BME280;50749;51.636;4.948;2023-04-09T09:23:44;102538.09;;;19.05;54.55
59190;BME280;50749;51.636;4.948;2023-04-09T09:28:37;102538.44;;;19.04;55.35
59190;BME280;50749;51.636;4.948;2023-04-09T09:31:10;102536.78;;;19.03;55.26
59190;BME280;50749;51.636;4.948;2023-04-09T09:33:37;102540.22;;;19.00;55.54
59190;BME280;50749;51.636;4.948;2023-04-09T09:36:03;102542.16;;;18.99;55.16
59190;BME280;50749;51.636;4.948;2023-04-09T09:38:29;102534.19;;;18.98;55.66
59190;BME280;50749;51.636;4.948;2023-04-09T09:40:56;102539.22;;;18.96;55.57
59190;BME280;50749;51.636;4.948;2023-04-09T09:43:22;102523.41;;;18.96;55.48
59190;BME280;50749;51.636;4.948;2023-04-09T09:45:48;102521.47;;;18.97;55.75
59190;BME280;50749;51.636;4.948;2023-04-09T09:48:14;102523.09;;;18.98;55.67
59190;BME280;50749;51.636;4.948;2023-04-09T09:50:41;102524.56;;;19.04;55.91
59190;BME280;50749;51.636;4.948;2023-04-09T09:53:08;102523.75;;;19.03;55.76
59190;BME280;50749;51.636;4.948;2023-04-09T09:55:40;102515.78;;;19.02;56.22
59190;BME280;50749;51.636;4.948;2023-04-09T09:58:18;102509.06;;;19.03;56.02
59190;BME280;50749;51.636;4.948;2023-04-09T10:00:49;102503.53;;;19.03;56.24
59190;BME280;50749;51.636;4.948;2023-04-09T10:03:24;102497.50;;;19.01;54.60
59190;BME280;50749;51.636;4.948;2023-04-09T10:05:50;102501.59;;;19.03;55.07
59190;BME280;50749;51.636;4.948;2023-04-09T10:08:20;102504.03;;;19.05;55.11
59190;BME280;50749;51.636;4.948;2023-04-09T10:10:46;102497.81;;;19.08;54.67
59190;BME280;50749;51.636;4.948;2023-04-09T10:13:19;102497.66;;;19.13;54.82
59190;BME280;50749;51.636;4.948;2023-04-09T10:15:46;102495.56;;;19.10;55.19
59190;BME280;50749;51.636;4.948;2023-04-09T10:18:14;102488.69;;;19.07;55.45
59190;BME280;50749;51.636;4.948;2023-04-09T10:20:47;102484.31;;;19.06;55.68
59190;BME280;50749;51.636;4.948;2023-04-09T10:23:20;102475.84;;;19.11;54.93
59190;BME280;50749;51.636;4.948;2023-04-09T10:25:48;102470.44;;;19.15;55.12
59190;BME280;50749;51.636;4.948;2023-04-09T10:28:16;102467.34;;;19.17;54.51
59190;BME280;50749;51.636;4.948;2023-04-09T10:30:42;102475.34;;;19.18;54.67
59190;BME280;50749;51.636;4.948;2023-04-09T10:33:16;102464.72;;;19.20;54.41
59190;BME280;50749;51.636;4.948;2023-04-09T10:35:46;102463.56;;;19.21;54.49
59190;BME280;50749;51.636;4.948;2023-04-09T10:38:14;102452.31;;;19.18;56.25
59190;BME280;50749;51.636;4.948;2023-04-09T10:40:46;102465.06;;;19.19;55.61
59190;BME280;50749;51.636;4.948;2023-04-09T10:43:17;102453.97;;;19.19;55.48
59190;BME280;50749;51.636;4.948;2023-04-09T10:45:44;102448.44;;;19.19;55.40
59190;BME280;50749;51.636;4.948;2023-04-09T10:48:11;102440.91;;;19.19;55.30
59190;BME280;50749;51.636;4.948;2023-04-09T10:50:40;102447.25;;;19.20;55.95
59190;BME280;50749;51.636;4.948;2023-04-09T10:53:07;102447.25;;;19.20;55.70
59190;BME280;50749;51.636;4.948;2023-04-09T10:55:47;102453.31;;;19.22;55.43
59190;BME280;50749;51.636;4.948;2023-04-09T10:58:15;102443.03;;;19.22;55.73
59190;BME280;50749;51.636;4.948;2023-04-09T11:00:43;102441.91;;;19.23;55.76
59190;BME280;50749;51.636;4.948;2023-04-09T11:05:51;102433.75;;;19.27;55.69
59190;BME280;50749;51.636;4.948;2023-04-09T11:08:18;102432.91;;;19.26;55.74
59190;BME280;50749;51.636;4.948;2023-04-09T11:10:46;102431.59;;;19.33;56.87
59190;BME280;50749;51.636;4.948;2023-04-09T11:13:13;102424.09;;;19.33;56.02
59190;BME280;50749;51.636;4.948;2023-04-09T11:15:40;102423.28;;;19.33;55.40
59190;BME280;50749;51.636;4.948;2023-04-09T11:18:06;102432.41;;;19.33;55.64
59190;BME280;50749;51.636;4.948;2023-04-09T11:20:34;102432.59;;;19.37;55.50
59190;BME280;50749;51.636;4.948;2023-04-09T11:23:01;102432.06;;;19.35;55.90
59190;BME280;50749;51.636;4.948;2023-04-09T11:25:29;102432.59;;;19.37;55.79
59190;BME280;50749;51.636;4.948;2023-04-09T11:27:56;102424.59;;;19.35;55.69
59190;BME280;50749;51.636;4.948;2023-04-09T11:30:22;102424.91;;;19.34;55.86
59190;BME280;50749;51.636;4.948;2023-04-09T11:32:48;102409.41;;;19.33;55.93
59190;BME280;50749;51.636;4.948;2023-04-09T11:35:19;102412.19;;;19.33;56.12
59190;BME280;50749;51.636;4.948;2023-04-09T11:37:46;102410.22;;;19.33;55.98
59190;BME280;50749;51.636;4.948;2023-04-09T11:40:20;102405.00;;;19.31;56.21
59190;BME280;50749;51.636;4.948;2023-04-09T11:42:50;102403.38;;;19.30;56.06
59190;BME280;50749;51.636;4.948;2023-04-09T11:45:16;102406.63;;;19.33;55.89
59190;BME280;50749;51.636;4.948;2023-04-09T11:47:43;102414.97;;;19.33;56.01
59190;BME280;50749;51.636;4.948;2023-04-09T11:50:11;102409.25;;;19.29;56.19
59190;BME280;50749;51.636;4.948;2023-04-09T11:52:39;102413.84;;;19.25;56.27
59190;BME280;50749;51.636;4.948;2023-04-09T11:55:06;102410.25;;;19.24;56.06
59190;BME280;50749;51.636;4.948;2023-04-09T11:57:45;102411.41;;;19.23;56.05
59190;BME280;50749;51.636;4.948;2023-04-09T12:00:15;102401.13;;;19.24;56.12
59190;BME280;50749;51.636;4.948;2023-04-09T12:02:44;102411.06;;;19.25;55.83
59190;BME280;50749;51.636;4.948;2023-04-09T12:05:21;102401.94;;;19.24;55.72
59190;BME280;50749;51.636;4.948;2023-04-09T12:07:48;102406.34;;;19.25;56.06
59190;BME280;50749;51.636;4.948;2023-04-09T12:10:13;102409.13;;;19.25;55.99
59190;BME280;50749;51.636;4.948;2023-04-09T12:12:41;102406.34;;;19.25;55.90
59190;BME280;50749;51.636;4.948;2023-04-09T12:15:21;102398.81;;;19.26;56.22
59190;BME280;50749;51.636;4.948;2023-04-09T12:17:53;102409.13;;;19.25;55.87
59190;BME280;50749;51.636;4.948;2023-04-09T12:20:29;102405.19;;;19.26;55.56
59190;BME280;50749;51.636;4.948;2023-04-09T12:22:57;102400.31;;;19.23;55.90
59190;BME280;50749;51.636;4.948;2023-04-09T12:25:25;102401.78;;;19.21;55.68
59190;BME280;50749;51.636;4.948;2023-04-09T12:27:53;102396.56;;;19.19;55.72
59190;BME280;50749;51.636;4.948;2023-04-09T12:30:20;102396.22;;;19.21;55.42
59190;BME280;50749;51.636;4.948;2023-04-09T12:32:46;102392.81;;;19.24;55.40
59190;BME280;50749;51.636;4.948;2023-04-09T12:35:14;102384.50;;;19.24;55.49
59190;BME280;50749;51.636;4.948;2023-04-09T12:37:41;102389.06;;;19.28;55.94
59190;BME280;50749;51.636;4.948;2023-04-09T12:40:07;102388.72;;;19.30;55.64
59190;BME280;50749;51.636;4.948;2023-04-09T12:42:34;102398.31;;;19.33;55.30
59190;BME280;50749;51.636;4.948;2023-04-09T12:44:59;102393.44;;;19.29;55.79
59190;BME280;50749;51.636;4.948;2023-04-09T12:47:26;102397.38;;;19.28;55.94
59190;BME280;50749;51.636;4.948;2023-04-09T12:49:53;102394.09;;;19.26;55.92
59190;BME280;50749;51.636;4.948;2023-04-09T12:52:19;102390.97;;;19.28;55.69
59190;BME280;50749;51.636;4.948;2023-04-09T12:54:44;102386.13;;;19.25;55.37
59190;BME280;50749;51.636;4.948;2023-04-09T12:57:10;102377.44;;;19.26;55.61
59190;BME280;50749;51.636;4.948;2023-04-09T12:59:36;102380.91;;;19.23;55.82
59190;BME280;50749;51.636;4.948;2023-04-09T13:02:02;102386.94;;;19.25;55.85
59190;BME280;50749;51.636;4.948;2023-04-09T13:04:30;102389.69;;;19.25;56.39
59190;BME280;50749;51.636;4.948;2023-04-09T13:06:56;102394.78;;;19.23;56.52
59190;BME280;50749;51.636;4.948;2023-04-09T13:09:23;102394.78;;;19.23;56.34
59190;BME280;50749;51.636;4.948;2023-04-09T13:11:50;102389.22;;;19.23;56.43
59190;BME280;50749;51.636;4.948;2023-04-09T13:14:16;102385.94;;;19.21;56.51